Tiempo atmosférico en la estación meteorológica de Ossa De Montiel, Albacete (905 m.)



Fecha
DESCASC
Temp. máxima en grados centígrados (hora)
DESCASC
Temp. mínima en grados centígrados (hora)
DESCASC
Temp. media en grados centígrados
DESCASC
Racha de viento máxima en m/sg (hora)
DESCASC
Velocidad máxima media en intervalos de 10 minutos(hora)
DESCASC
Precipitaciones diarias en mm
DESCASC
Precipitaciones de 00:00 a 06:00 en mm
DESCASC
Precipitaciones de 06:00 a 12:00 en mm
DESCASC
Precipitaciones de 12:00 a 18:00 en mm
DESCASC
Precipitaciones de 18:00 a 24:00 en mm
DESCASC
20-09-2020 22 (17:00) 13.6 (01:20) 17.8 7.78 (15:40) 4.17 (14:20) 0 0 0 0 0
19-09-2020 21.5 (14:30) 13.4 (08:30) 17.4 11.67 (13:50) 6.39 (16:00) 0.6 0 0.6 0 0
18-09-2020 23.1 (15:50) 14 (21:30) 18.6 13.89 (17:30) 6.94 (17:30) 5.6 0 0 3.2 2.4
17-09-2020 27.7 (16:10) 17.6 (00:00) 22.7 10.28 (20:20) 5 (20:20) 3.4 1 0 0 2.4
16-09-2020 30.4 (14:40) 15.4 (00:00) 22.9 9.44 (18:50) 5.28 (19:00) 0 0 0 0 0
15-09-2020 30 (15:40) 15.7 (00:00) 22.8 6.39 (01:00) 2.78 (01:50) 0 0 0 0 0
14-09-2020 31.3 (16:00) 17.6 (00:00) 24.4 12.5 (21:20) 5.56 (21:20) 0 0 0 0 0
13-09-2020 30.1 (15:00) 17.2 (00:00) 23.7 11.39 (14:20) 4.72 (14:20) 0 0 0 0 0
12-09-2020 32.5 (16:20) 15.3 (00:00) 23.9 8.33 (19:20) 4.17 (17:40) 0 0 0 0 0
11-09-2020 31.3 (16:30) 12.7 (00:00) 22 6.67 (16:20) 3.33 (16:20) 0 0 0 0 0
10-09-2020 28.3 (14:50) 11.6 (00:00) 19.9 9.44 (13:30) 3.61 (16:10) 0 0 0 0 0
09-09-2020 -- (--) -- (--) -- -- (--) -- (--) -- 0 -- 0 0
08-09-2020 24.9 (16:20) 13.5 (00:00) 19.2 10.83 (10:30) 6.11 (10:20) 0 0 0 0 0
07-09-2020 27 (15:10) 15.2 (07:40) 21.1 8.89 (16:00) 4.44 (18:30) 0 0 0 0 0
06-09-2020 32 (15:40) 16 (00:00) 24 7.5 (18:20) 3.61 (18:30) 0 0 0 0 0
05-09-2020 31.9 (13:30) 14.2 (00:00) 23 7.78 (18:40) 3.61 (18:40) 0 0 0 0 0
04-09-2020 29.3 (16:10) 14.7 (00:00) 22 10.28 (13:00) 4.72 (11:50) 0 0 0 0 0
03-09-2020 29.9 (15:20) 14 (00:00) 21.9 8.33 (18:50) 4.44 (19:50) 0 0 0 0 0
02-09-2020 28.6 (15:20) 12.3 (00:00) 20.5 6.94 (19:10) 3.33 (18:30) 0 0 0 0 0
01-09-2020 28.6 (16:20) 11.7 (00:00) 20.2 7.22 (17:10) 3.61 (17:30) 0 0 0 0 0
31-08-2020 27.4 (17:00) 8.9 (00:00) 18.1 5.28 (16:10) 2.78 (19:30) 0 0 0 0 0
30-08-2020 22.6 (15:00) 10.1 (00:00) 16.4 6.94 (18:30) 3.33 (20:00) 0 0 0 0 0
29-08-2020 22.9 (00:00) 13.3 (00:00) 18.1 10.56 (16:00) 5.56 (12:20) 0 0 0 0 0
28-08-2020 33.1 (15:20) 19.3 (00:00) 26.2 14.72 (15:10) 6.39 (17:00) 0 0 0 0 0
27-08-2020 37.1 (15:50) 17.8 (00:00) 27.4 8.61 (14:10) 3.61 (16:50) 0 0 0 0 0
26-08-2020 37.1 (15:40) 18.9 (00:00) 28 6.67 (19:20) 3.61 (16:10) 0 0 0 0 0
25-08-2020 35.8 (15:50) 17.8 (00:00) 26.8 6.39 (16:10) 3.06 (16:00) 0 0 0 0 0
24-08-2020 34.8 (16:40) 17.9 (00:00) 26.3 6.11 (16:00) 3.06 (14:00) 0 0 0 0 0

Gráficas

Temp. máximas Temp. mínimas Temp. medias Precipitaciones Rachas de viento máximas Velocidades máximas media en intervalos de 10 minutos

Datos horarios

Fecha y hora oficial Temperatura (ºC) Velocidad del viento (km/h) Dirección del viento Racha (km/h) Dirección de racha Precipitación (mm) Presión (hPa) Tendencia (hPa) Humedad (%)
2020-09-22 23:00:00 18.5 5 Noroeste 11 Noroeste 0 -- -- 58
2020-09-22 22:00:00 18.3 0 Calma 7 Norte 0 -- -- 57
2020-09-22 21:00:00 20.1 5 Noroeste 12 Noroeste 0 -- -- 51
2020-09-22 20:00:00 22 6 Noroeste 28 Noroeste 0 -- -- 45
2020-09-22 19:00:00 23.4 12 Noroeste 30 Oeste 0 -- -- 41
2020-09-22 18:00:00 24.1 15 Noroeste 32 Noroeste 0 -- -- 39
2020-09-22 17:00:00 24.2 14 Noroeste 33 Noroeste 0 -- -- 38
2020-09-22 16:00:00 24.6 12 Noroeste 32 Oeste 0 -- -- 39
2020-09-22 15:00:00 25 11 Noroeste 34 Noroeste 0 -- -- 38
2020-09-22 14:00:00 23.6 12 Noroeste 30 Noroeste 0 -- -- 41
2020-09-22 13:00:00 23.1 11 Noroeste 23 Noroeste 0 -- -- 41
2020-09-22 12:00:00 21.9 8 Noroeste 18 Noroeste 0 -- -- 44
2020-09-22 11:00:00 18.8 3 Sudoeste 6 Sudoeste 0 -- -- 55
2020-09-22 10:00:00 15.5 2 Sur 4 Sur 0 -- -- 65
2020-09-22 09:00:00 11.7 0 Calma 5 Sudeste 0 -- -- 77
2020-09-22 08:00:00 9.8 0 Calma 4 Sudeste 0 -- -- 82
2020-09-22 07:00:00 10 0 Calma 3 Este 0 -- -- 82
2020-09-22 06:00:00 10.5 0 Calma 3 Este 0 -- -- 81
2020-09-22 05:00:00 11.3 0 Calma 2 Sudoeste 0 -- -- 77
2020-09-22 04:00:00 11.6 0 Calma 3 Sudeste 0 -- -- 76
2020-09-22 03:00:00 12.2 0 Calma 4 Sur 0 -- -- 73
2020-09-22 02:00:00 13.1 0 Calma 3 Sudeste 0 -- -- 68
2020-09-22 01:00:00 13.5 2 Sudeste 5 Sudeste 0 -- -- 69
2020-09-22 00:00:00 14.8 0 Calma 4 Oeste 0 -- -- 55
2020-09-21 23:00:00 15.7 0 Calma 4 Este 0 -- -- 63
2020-09-21 22:00:00 17.8 2 Noroeste 8 Noroeste 0 -- -- 46
2020-09-21 21:00:00 18.9 4 Noroeste 7 Noroeste 0 -- -- 53
2020-09-21 20:00:00 20.7 5 Noroeste 18 Norte 0 -- -- 47
2020-09-21 19:00:00 22 10 Noroeste 23 Noroeste 0 -- -- 39
2020-09-21 18:00:00 22.7 8 Noroeste 24 Noroeste 0 -- -- 43
2020-09-21 17:00:00 23.2 9 Noroeste 23 Noroeste 0 -- -- 42
2020-09-21 16:00:00 23.8 8 Noroeste 27 Noroeste 0 -- -- 40
2020-09-21 15:00:00 23.9 9 Oeste 26 Noroeste 0 -- -- 41
2020-09-21 14:00:00 23.4 12 Noroeste 28 Noroeste 0 -- -- 42
2020-09-21 13:00:00 22.4 5 Noroeste 19 Oeste 0 -- -- 51
2020-09-21 12:00:00 21.7 5 Oeste 11 Oeste 0 -- -- 54
2020-09-21 11:00:00 16.9 3 Sudoeste 7 Oeste 0 -- -- 77
2020-09-21 10:00:00 14.3 2 Sur 4 Sudoeste 0 -- -- 84
2020-09-21 09:00:00 11.1 2 Sudeste 4 Sudeste 0 -- -- 92
2020-09-21 08:00:00 10.6 0 Calma 2 Sur 0 -- -- 91
2020-09-21 07:00:00 11 0 Calma 2 Sudeste 0 -- -- 91
2020-09-21 06:00:00 11.2 0 Calma 2 Este 0 -- -- 92
2020-09-21 05:00:00 11.2 0 Calma 2 Sudeste 0 -- -- 91
2020-09-21 04:00:00 11.6 2 Nordeste 4 Este 0 -- -- 90
2020-09-21 03:00:00 11.9 0 Calma 3 Sudeste 0 -- -- 89
2020-09-21 02:00:00 12.6 0 Calma 4 Sudoeste 0 -- -- 87
2020-09-21 01:00:00 13.7 0 Calma 4 Sudoeste 0 -- -- 83
2020-09-21 00:00:00 14.6 2 Sudeste 4 Sudeste 0 -- -- 79
2020-09-20 23:00:00 15.8 0 Calma 6 Noroeste 0 -- -- 73
2020-09-20 22:00:00 16.4 3 Noroeste 6 Noroeste 0 -- -- 70
2020-09-20 21:00:00 17.3 4 Noroeste 12 Noroeste 0 -- -- 66
2020-09-20 20:00:00 19.2 8 Noroeste 20 Noroeste 0 -- -- 58
2020-09-20 19:00:00 20.5 11 Noroeste 27 Noroeste 0 -- -- 53
2020-09-20 18:00:00 20.4 9 Noroeste 25 Noroeste 0 -- -- 57
2020-09-20 17:00:00 22 10 Noroeste 25 Noroeste 0 -- -- 53
2020-09-20 16:00:00 20.9 13 Noroeste 28 Noroeste 0 -- -- 58
2020-09-20 15:00:00 20.8 13 Noroeste 28 Oeste 0 -- -- 58
2020-09-20 14:00:00 20.5 13 Oeste 24 Oeste 0 -- -- 57
2020-09-20 13:00:00 19.4 12 Oeste 27 Oeste 0 -- -- 63
2020-09-20 12:00:00 18.8 12 Noroeste 22 Noroeste 0 -- -- 67
2020-09-20 11:00:00 17.6 10 Noroeste 20 Noroeste 0 -- -- 75
2020-09-20 10:00:00 16.1 10 Oeste 16 Oeste 0 -- -- 85
2020-09-20 09:00:00 14.5 6 Oeste 15 Oeste 0 -- -- 94
2020-09-20 08:00:00 14.2 8 Oeste 19 Oeste 0 -- -- 94
2020-09-20 07:00:00 14.6 9 Oeste 18 Oeste 0 -- -- 95
2020-09-20 06:00:00 14.4 10 Oeste 19 Oeste 0 -- -- 95
2020-09-20 05:00:00 14 6 Oeste 14 Oeste 0 -- -- 96
2020-09-20 04:00:00 13.8 11 Oeste 20 Oeste 0 -- -- 96
2020-09-20 03:00:00 13.7 7 Oeste 19 Oeste 0 -- -- 96
2020-09-20 02:00:00 13.6 7 Oeste 15 Sudoeste 0 -- -- 95
2020-09-20 01:00:00 13.7 6 Oeste 14 Oeste 0 -- -- 94
2020-09-20 00:00:00 14.2 8 Oeste 21 Oeste 0 -- -- 93
2020-09-19 23:00:00 14.6 7 Oeste 18 Oeste 0 -- -- 91
2020-09-19 22:00:00 15.2 8 Oeste 17 Oeste 0 -- -- 88
2020-09-19 21:00:00 16.3 8 Oeste 22 Oeste 0 -- -- 79
2020-09-19 20:00:00 17.6 12 Oeste 26 Oeste 0 -- -- 71
2020-09-19 19:00:00 18.6 16 Oeste 37 Oeste 0 -- -- 68
2020-09-19 18:00:00 19.8 17 Oeste 34 Oeste 0 -- -- 61
2020-09-19 17:00:00 20.2 15 Oeste 32 Oeste 0 -- -- 60
2020-09-19 16:00:00 20.9 23 Oeste 36 Oeste 0 -- -- 56
2020-09-19 15:00:00 20.7 21 Oeste 40 Oeste 0 -- -- 55
2020-09-19 14:00:00 21 19 Oeste 42 Oeste 0 -- -- 56
2020-09-19 13:00:00 18.7 15 Oeste 37 Oeste 0 -- -- 64
2020-09-19 12:00:00 17.8 18 Oeste 35 Oeste 0 -- -- 70
2020-09-19 11:00:00 16.2 15 Oeste 29 Oeste 0 -- -- 85
2020-09-19 10:00:00 14.8 13 Oeste 22 Oeste 0 -- -- 91
2020-09-19 09:00:00 14 5 Oeste 22 Oeste 0 -- -- 94
2020-09-19 08:00:00 13.7 13 Oeste 26 Oeste 0.2 -- -- 93
2020-09-19 07:00:00 14.1 14 Oeste 31 Oeste 0.4 -- -- 92
2020-09-19 06:00:00 14.3 6 Oeste 18 Oeste 0 -- -- 91
2020-09-19 05:00:00 14.1 7 Oeste 22 Oeste 0 -- -- 91
2020-09-19 04:00:00 13.9 11 Oeste 21 Sudoeste 0 -- -- 92
2020-09-19 03:00:00 14.3 9 Oeste 22 Oeste 0 -- -- 91
2020-09-19 02:00:00 15.2 5 Oeste 17 Sudoeste 0 -- -- 90
2020-09-19 01:00:00 15.1 5 Sudoeste 17 Sudoeste 0 -- -- 89
2020-09-19 00:00:00 15.5 9 Sur 15 Sur 0 -- -- 87
2020-09-18 23:00:00 14.9 3 Sudoeste 14 Sur 0 -- -- 91
2020-09-18 22:00:00 14.4 8 Sur 15 Sur 0 -- -- 92
2020-09-18 21:00:00 14.1 2 Sur 8 Norte 0 -- -- 94
2020-09-18 20:00:00 14.6 4 Norte 15 Noroeste 0 -- -- 92
2020-09-18 19:00:00 14.9 5 Noroeste 30 Noroeste 2.4 -- -- 90
2020-09-18 18:00:00 15.7 9 Noroeste 50 Oeste 2.4 -- -- 80
2020-09-18 17:00:00 19.1 14 Sudoeste 35 Sudoeste 0.8 -- -- 70
2020-09-18 16:00:00 22.1 10 Sudeste 19 Sudeste 0 -- -- 48
2020-09-18 15:00:00 21.6 8 Este 22 Nordeste 0 -- -- 48
2020-09-18 14:00:00 17.6 12 Norte 48 Noroeste 0 -- -- 60
2020-09-18 13:00:00 21.1 4 Sudoeste 12 Oeste 0 -- -- 59
2020-09-18 12:00:00 20.3 3 Sudoeste 14 Sudoeste 0 -- -- 62
2020-09-18 11:00:00 18.5 6 Sudoeste 24 Sur 0 -- -- 68
2020-09-18 10:00:00 17.8 10 Sudoeste 17 Sur 0 -- -- 70
2020-09-18 09:00:00 16.6 2 Sudeste 15 Sudoeste 0 -- -- 74
2020-09-18 08:00:00 16.4 9 Sudoeste 26 Oeste 0 -- -- 74
2020-09-18 07:00:00 16.7 10 Sudoeste 34 Sudoeste 0 -- -- 71
2020-09-18 06:00:00 17.4 21 Sudoeste 42 Sudoeste 0 -- -- 65
2020-09-18 05:00:00 18.1 16 Sudoeste 30 Sur 0 -- -- 61
2020-09-18 04:00:00 17.8 13 Sudoeste 27 Sur 0 -- -- 65
2020-09-18 03:00:00 18.3 21 Sur 33 Sur 0 -- -- 64
2020-09-18 02:00:00 18.4 16 Sudoeste 35 Sudoeste 0 -- -- 65
2020-09-18 01:00:00 19.2 9 Oeste 25 Sudoeste 0 -- -- 68
2020-09-18 00:00:00 19.6 11 Sudoeste 25 Sudoeste 0 -- -- 78
2020-09-17 23:00:00 19 11 Sur 23 Sur 0 -- -- 86
2020-09-17 22:00:00 18.7 5 Sudeste 18 Sudoeste 0 -- -- 88
2020-09-17 21:00:00 19.1 8 Sur 37 Sudoeste 2.4 -- -- 84
2020-09-17 20:00:00 25.4 4 Oeste 8 Sudoeste 0 -- -- 43
2020-09-17 19:00:00 26.6 6 Sudoeste 19 Sudoeste 0 -- -- 40
2020-09-17 18:00:00 26.3 13 Sudoeste 28 Sudoeste 0 -- -- 42
2020-09-17 17:00:00 26.7 14 Oeste 30 Oeste 0 -- -- 41
2020-09-17 16:00:00 27.4 17 Oeste 31 Sudoeste 0 -- -- 40
2020-09-17 15:00:00 26 12 Oeste 31 Oeste 0 -- -- 44
2020-09-17 14:00:00 24.6 14 Sudoeste 27 Sudoeste 0 -- -- 48
2020-09-17 13:00:00 22.7 11 Sudoeste 26 Sudoeste 0 -- -- 53
2020-09-17 12:00:00 22.8 14 Oeste 27 Oeste 0 -- -- 54
2020-09-17 11:00:00 21.9 7 Sudoeste 18 Sudoeste 0 -- -- 59
2020-09-17 10:00:00 20.8 6 Sur 10 Sur 0 -- -- 64
2020-09-17 09:00:00 18.9 4 Sur 13 Sur 0 -- -- 74
2020-09-17 08:00:00 18.3 6 Sur 14 Sudoeste 0 -- -- 75
2020-09-17 07:00:00 18.4 4 Sur 15 Sur 0 -- -- 74
2020-09-17 06:00:00 18.6 8 Sudeste 19 Sur 0 -- -- 72
2020-09-17 05:00:00 18.1 6 Sur 22 Sudeste 0 -- -- 76
2020-09-17 04:00:00 17.8 11 Sudeste 22 Sudeste 0.8 -- -- 81
2020-09-17 03:00:00 18.5 6 Oeste 24 Oeste 0.2 -- -- 76
2020-09-17 02:00:00 20 4 Noroeste 27 Noroeste 0 -- -- 62
2020-09-17 01:00:00 23.1 10 Oeste 22 Oeste 0 -- -- 47
2020-09-17 00:00:00 22.5 5 Sur 10 Sudeste 0 -- -- 53
2020-09-16 23:00:00 23.1 3 Sur 13 Sudeste 0 -- -- 52
2020-09-16 22:00:00 23.9 5 Sur 16 Sur 0 -- -- 49
2020-09-16 21:00:00 25 5 Sur 26 Sur 0 -- -- 43
2020-09-16 20:00:00 26.8 17 Sur 33 Sur 0 -- -- 37
2020-09-16 19:00:00 28.3 19 Sur 34 Sur 0 -- -- 33
2020-09-16 18:00:00 29.7 5 Sudoeste 15 Sudoeste 0 -- -- 29
2020-09-16 17:00:00 29.9 5 Oeste 19 Sudeste 0 -- -- 30
2020-09-16 16:00:00 28.9 7 Este 22 Este 0 -- -- 33
2020-09-16 15:00:00 30.1 5 Sudeste 20 Sudeste 0 -- -- 32
2020-09-16 14:00:00 30.2 4 Nordeste 18 Sudeste 0 -- -- 33
2020-09-16 13:00:00 29.1 3 Sur 14 Sur 0 -- -- 36
2020-09-16 12:00:00 28.1 5 Sur 9 Sur 0 -- -- 39
2020-09-16 11:00:00 26.2 4 Sur 8 Sur 0 -- -- 43
2020-09-16 10:00:00 21.7 2 Sudoeste 6 Sur 0 -- -- 57
2020-09-16 09:00:00 17.4 2 Sur 6 Sudeste 0 -- -- 68
2020-09-16 08:00:00 15.4 0 Calma 4 Sudeste 0 -- -- 72
2020-09-16 07:00:00 16.1 2 Sudeste 5 Este 0 -- -- 69
2020-09-16 06:00:00 16.7 2 Sur 5 Sur 0 -- -- 66
2020-09-16 05:00:00 17.1 0 Calma 6 Sudeste 0 -- -- 65
2020-09-16 04:00:00 18.3 2 Sudoeste 9 Sudeste 0 -- -- 62
2020-09-16 03:00:00 19.1 0 Calma 5 Sudoeste 0 -- -- 60
2020-09-16 02:00:00 19.4 0 Calma 5 Sur 0 -- -- 57
2020-09-16 01:00:00 19.7 4 Sudeste 10 Sudeste 0 -- -- 57
2020-09-16 00:00:00 20.9 5 Sudeste 9 Sudeste 0 -- -- 54
2020-09-15 23:00:00 22.2 4 Sudeste 12 Sudeste 0 -- -- 51
2020-09-15 22:00:00 23.2 5 Nordeste 12 Nordeste 0 -- -- 50
2020-09-15 21:00:00 24.6 5 Nordeste 12 Este 0 -- -- 48
2020-09-15 20:00:00 26.2 6 Nordeste 14 Norte 0 -- -- 43
2020-09-15 19:00:00 27.6 7 Norte 19 Nordeste 0 -- -- 41
2020-09-15 18:00:00 27.8 6 Nordeste 13 Nordeste 0 -- -- 40
2020-09-15 17:00:00 29.1 5 Norte 19 Nordeste 0 -- -- 38
2020-09-15 16:00:00 27.9 8 Norte 14 Nordeste 0 -- -- 41
2020-09-15 15:00:00 28.1 7 Sudoeste 18 Sudoeste 0 -- -- 40
2020-09-15 14:00:00 28 5 Sudeste 13 Sur 0 -- -- 41
2020-09-15 13:00:00 26.6 4 Este 14 Sur 0 -- -- 46
2020-09-15 12:00:00 25.6 4 Norte 10 Norte 0 -- -- 50
2020-09-15 11:00:00 25.1 4 Oeste 10 Oeste 0 -- -- 52
2020-09-15 10:00:00 20.6 4 Sudoeste 8 Sur 0 -- -- 69
2020-09-15 09:00:00 16.8 2 Sudeste 5 Sudeste 0 -- -- 77
2020-09-15 08:00:00 16 0 Calma 5 Sudeste 0 -- -- 77
2020-09-15 07:00:00 15.9 0 Calma 5 Sudeste 0 -- -- 75
2020-09-15 06:00:00 16.6 3 Sudeste 6 Sudeste 0 -- -- 71
2020-09-15 05:00:00 17.4 2 Sudeste 6 Sudeste 0 -- -- 71
2020-09-15 04:00:00 18.3 2 Sur 8 Sudeste 0 -- -- 70
2020-09-15 03:00:00 18.7 4 Sur 12 Sudeste 0 -- -- 72
2020-09-15 02:00:00 19.2 10 Sur 19 Sur 0 -- -- 72
2020-09-15 01:00:00 19.7 8 Sur 23 Sur 0 -- -- 68
2020-09-15 00:00:00 20.5 8 Sur 24 Sur 0 -- -- 65
2020-09-14 23:00:00 21.6 7 Sur 19 Sur 0 -- -- 54
2020-09-14 22:00:00 22.2 7 Sur 45 Sudeste 0 -- -- 51
2020-09-14 21:00:00 24.9 15 Sur 31 Sur 0 -- -- 42
2020-09-14 20:00:00 27 2 Este 32 Oeste 0 -- -- 33
2020-09-14 19:00:00 28 11 Sudoeste 24 Sur 0 -- -- 36
2020-09-14 18:00:00 29.3 12 Sur 28 Sur 0 -- -- 30
2020-09-14 17:00:00 30.6 8 Sur 21 Sudoeste 0 -- -- 24
2020-09-14 16:00:00 31.3 6 Sur 17 Sur 0 -- -- 22
2020-09-14 15:00:00 29.3 9 Sur 17 Sudoeste 0 -- -- 23
2020-09-14 14:00:00 30 5 Sudoeste 15 Sudoeste 0 -- -- 23
2020-09-14 13:00:00 28.9 7 Sudoeste 15 Sudoeste 0 -- -- 25
2020-09-14 12:00:00 28.8 8 Sur 23 Sur 0 -- -- 27
2020-09-14 11:00:00 26 10 Sur 24 Sudeste 0 -- -- 34
2020-09-14 10:00:00 22.6 10 Sur 22 Sur 0 -- -- 45
2020-09-14 09:00:00 19.4 7 Sur 22 Sur 0 -- -- 51
2020-09-14 08:00:00 17.8 8 Sudeste 22 Sur 0 -- -- 58
2020-09-14 07:00:00 17.6 6 Sur 18 Sudeste 0 -- -- 59
2020-09-14 06:00:00 17.8 6 Sur 18 Sur 0 -- -- 60
2020-09-14 05:00:00 17.8 6 Sur 16 Sur 0 -- -- 61
2020-09-14 04:00:00 18.4 5 Sudeste 18 Sudeste 0 -- -- 59
2020-09-14 03:00:00 19 7 Sur 22 Sur 0 -- -- 57
2020-09-14 02:00:00 19.9 10 Sur 22 Sur 0 -- -- 53
2020-09-14 01:00:00 20.6 10 Sur 22 Sur 0 -- -- 50
2020-09-14 00:00:00 21.4 12 Sur 32 Sur 0 -- -- 48
2020-09-13 23:00:00 22.1 11 Sur 28 Sur 0 -- -- 46
2020-09-13 22:00:00 22.9 10 Sur 31 Sur 0 -- -- 44
2020-09-13 21:00:00 23.7 8 Sur 31 Sur 0 -- -- 45
2020-09-13 20:00:00 25.3 17 Sur 33 Sur 0 -- -- 39
2020-09-13 19:00:00 27.4 12 Sur 31 Sur 0 -- -- 32
2020-09-13 18:00:00 27.8 13 Sur 31 Sur 0 -- -- 30
2020-09-13 17:00:00 29.3 13 Sur 27 Sudeste 0 -- -- 27
2020-09-13 16:00:00 28.9 12 Sur 32 Sudeste 0 -- -- 26
2020-09-13 15:00:00 30.1 15 Sur 41 Sur 0 -- -- 25
2020-09-13 14:00:00 28.9 15 Sur 35 Sur 0 -- -- 27
2020-09-13 13:00:00 28.2 12 Sudeste 33 Sudeste 0 -- -- 31
2020-09-13 12:00:00 28.7 15 Sur 32 Sudeste 0 -- -- 28
2020-09-13 11:00:00 26.6 10 Sur 22 Sudeste 0 -- -- 32
2020-09-13 10:00:00 25.7 7 Sur 17 Sudeste 0 -- -- 34
2020-09-13 09:00:00 21.6 5 Sur 14 Sur 0 -- -- 46
2020-09-13 08:00:00 17.8 6 Sudeste 13 Sudeste 0 -- -- 57
2020-09-13 07:00:00 17.4 5 Sudeste 10 Sudeste 0 -- -- 59
2020-09-13 06:00:00 17.7 3 Sudeste 11 Sudeste 0 -- -- 59
2020-09-13 05:00:00 18.4 5 Sudeste 18 Sudeste 0 -- -- 59
2020-09-13 04:00:00 19 6 Sur 21 Sudeste 0 -- -- 58
2020-09-13 03:00:00 20.1 6 Sur 19 Sur 0 -- -- 50
2020-09-13 02:00:00 20.1 5 Sudeste 13 Sudeste 0 -- -- 50
2020-09-13 01:00:00 21.1 7 Sudeste 17 Sudeste 0 -- -- 50
2020-09-13 00:00:00 21.1 6 Sur 15 Sur 0 -- -- 50
2020-09-12 23:00:00 22.6 7 Sur 21 Sur 0 -- -- 45
2020-09-12 22:00:00 24.1 7 Sur 23 Sur 0 -- -- 42
2020-09-12 21:00:00 25.8 12 Sudeste 26 Sudeste 0 -- -- 35
2020-09-12 20:00:00 28.1 13 Sudeste 30 Sudeste 0 -- -- 30
2020-09-12 19:00:00 29.6 12 Sudeste 25 Sudeste 0 -- -- 27
2020-09-12 18:00:00 30.8 14 Este 28 Este 0 -- -- 25
2020-09-12 17:00:00 31.1 2 Sur 15 Sudoeste 0 -- -- 23
2020-09-12 16:00:00 31.5 5 Nordeste 19 Sudeste 0 -- -- 22
2020-09-12 15:00:00 31.9 5 Sur 14 Sudeste 0 -- -- 22
2020-09-12 14:00:00 31.3 8 Sudoeste 15 Sur 0 -- -- 23
2020-09-12 13:00:00 31.4 3 Sudoeste 12 Noroeste 0 -- -- 25
2020-09-12 12:00:00 29.7 5 Oeste 13 Sur 0 -- -- 28
2020-09-12 11:00:00 27.9 5 Sur 11 Sudeste 0 -- -- 31
2020-09-12 10:00:00 24.8 3 Sur 11 Sur 0 -- -- 39
2020-09-12 09:00:00 19 4 Sudeste 9 Sudeste 0 -- -- 51
2020-09-12 08:00:00 15.3 0 Calma 3 Sudeste 0 -- -- 58
2020-09-12 07:00:00 16.2 0 Calma 4 Sur 0 -- -- 55
2020-09-12 06:00:00 16 0 Calma 3 Sudeste 0 -- -- 56
2020-09-12 05:00:00 17.3 0 Calma 3 Sudeste 0 -- -- 54
2020-09-12 04:00:00 18.4 0 Calma 3 Sudeste 0 -- -- 50
2020-09-12 03:00:00 19.1 0 Calma 6 Sur 0 -- -- 49
2020-09-12 02:00:00 19.8 0 Calma 4 Sudeste 0 -- -- 46
2020-09-12 01:00:00 20.4 2 Sur 6 Sudeste 0 -- -- 43
2020-09-12 00:00:00 21 3 Sudeste 8 Sudeste 0 -- -- 38
2020-09-11 23:00:00 21.2 0 Calma 4 Sur 0 -- -- 37
2020-09-11 22:00:00 22.9 2 Sudeste 9 Nordeste 0 -- -- 33
2020-09-11 21:00:00 24.7 4 Nordeste 13 Nordeste 0 -- -- 30
2020-09-11 20:00:00 27.4 8 Nordeste 20 Nordeste 0 -- -- 26
2020-09-11 19:00:00 28.2 11 Nordeste 21 Norte 0 -- -- 26
2020-09-11 18:00:00 29 12 Este 22 Nordeste 0 -- -- 25
2020-09-11 17:00:00 30.7 8 Oeste 24 Oeste 0 -- -- 24
2020-09-11 16:00:00 30.2 5 Norte 17 Noroeste 0 -- -- 25
2020-09-11 15:00:00 30.3 7 Noroeste 19 Norte 0 -- -- 25
2020-09-11 14:00:00 30.1 7 Noroeste 18 Oeste 0 -- -- 24
2020-09-11 13:00:00 29.2 4 Sudoeste 15 Noroeste 0 -- -- 27
2020-09-11 12:00:00 29.1 5 Oeste 12 Oeste 0 -- -- 28
2020-09-11 11:00:00 26.5 4 Sudoeste 9 Oeste 0 -- -- 33
2020-09-11 10:00:00 22.9 3 Sur 7 Sudeste 0 -- -- 43
2020-09-11 09:00:00 17.2 2 Sudoeste 4 Sur 0 -- -- 54
2020-09-11 08:00:00 12.9 2 Sur 4 Sudoeste 0 -- -- 64
2020-09-11 07:00:00 13.4 0 Calma 2 Sudeste 0 -- -- 61
2020-09-11 06:00:00 14.1 0 Calma 2 Sudoeste 0 -- -- 59
2020-09-11 05:00:00 14.5 0 Calma 2 Sur 0 -- -- 60
2020-09-11 04:00:00 14.9 0 Calma 4 Sudeste 0 -- -- 56
2020-09-11 03:00:00 16.3 0 Calma 4 Sudeste 0 -- -- 52
2020-09-11 02:00:00 16.3 2 Sudeste 6 Sudeste 0 -- -- 49
2020-09-11 01:00:00 16.5 0 Calma 7 Sudeste 0 -- -- 47
2020-09-11 00:00:00 18.1 0 Calma 6 Sudoeste 0 -- -- 43
2020-09-10 23:00:00 19.8 0 Calma 4 Sudeste 0 -- -- 40
2020-09-10 22:00:00 21.1 0 Calma 3 Este 0 -- -- 37
2020-09-10 21:00:00 23.6 2 Nordeste 12 Norte 0 -- -- 33
2020-09-10 20:00:00 25.6 8 Nordeste 19 Nordeste 0 -- -- 30
2020-09-10 19:00:00 26.9 6 Norte 19 Norte 0 -- -- 28
2020-09-10 18:00:00 26.9 6 Nordeste 23 Nordeste 0 -- -- 29
2020-09-10 17:00:00 27.9 8 Norte 29 Nordeste 0 -- -- 26
2020-09-10 16:00:00 27.7 10 Norte 25 Norte 0 -- -- 27
2020-09-10 15:00:00 27.8 10 Norte 27 Norte 0 -- -- 26
2020-09-10 14:00:00 27.7 9 Norte 34 Nordeste 0 -- -- 26
2020-09-10 13:00:00 26.9 10 Noroeste 23 Noroeste 0 -- -- 27
2020-09-10 12:00:00 26.7 7 Noroeste 17 Noroeste 0 -- -- 28
2020-09-10 11:00:00 25.5 6 Oeste 13 Oeste 0 -- -- 31
2020-09-10 10:00:00 20.5 2 Sur 5 Sudeste 0 -- -- 40
2020-09-10 09:00:00 17.1 0 Calma 3 Sudeste 0 -- -- 46
2020-09-10 08:00:00 11.9 0 Calma 4 Sudeste 0 -- -- 59
2020-09-10 07:00:00 11.9 0 Calma 4 Sudeste 0 -- -- 59
2020-09-10 06:00:00 12.3 0 Calma 4 Sudeste 0 -- -- 57
2020-09-10 05:00:00 12.9 0 Calma 6 Sudoeste 0 -- -- 56
2020-09-10 04:00:00 14 2 Sudoeste 4 Sudoeste 0 -- -- 53
2020-09-10 03:00:00 14.5 0 Calma 5 Sudeste 0 -- -- 51
2020-09-10 02:00:00 14.8 0 Calma 4 Sudeste 0 -- -- 51
2020-09-10 01:00:00 16.4 0 Calma 4 Oeste 0 -- -- 47
2020-09-10 00:00:00 17.8 0 Calma 3 Norte 0 -- -- 44
2020-09-09 23:00:00 19.5 0 Calma 4 Norte 0 -- -- 40
2020-09-09 22:00:00 20.5 0 Calma 6 Norte 0 -- -- 39
2020-09-09 21:00:00 22.2 3 Norte 12 Nordeste 0 -- -- 36
2020-09-09 20:00:00 24.1 6 Nordeste 17 Nordeste 0 -- -- 32
2020-09-09 19:00:00 25.1 10 Nordeste 21 Norte 0 -- -- 30
2020-09-09 18:00:00 25.5 9 Nordeste 22 Este 0 -- -- 29
2020-09-09 17:00:00 25.6 9 Nordeste 21 Nordeste 0 -- -- 30
2020-09-09 16:00:00 26.2 6 Nordeste 17 Sudeste 0 -- -- 31
2020-09-09 15:00:00 26 6 Nordeste 14 Sudeste 0 -- -- 33
2020-09-09 14:00:00 -- -- -- -- -- -- -- -- --
2020-09-09 13:00:00 -- -- -- -- -- -- -- -- --
2020-09-09 12:00:00 -- -- -- -- -- -- -- -- --
2020-09-09 11:00:00 -- -- -- -- -- -- -- -- --
2020-09-09 10:00:00 19.7 9 Sudeste 18 Sudeste 0 -- -- 54
2020-09-09 09:00:00 17.6 4 Sudeste 9 Sudeste 0 -- -- 57
2020-09-09 08:00:00 12.9 4 Sudeste 11 Sudeste 0 -- -- 70
2020-09-09 07:00:00 13.6 4 Sudeste 8 Sur 0 -- -- 69
2020-09-09 06:00:00 13.9 2 Sur 9 Sudeste 0 -- -- 71
2020-09-09 05:00:00 14.3 3 Sur 15 Sur 0 -- -- 72
2020-09-09 04:00:00 14.7 5 Sur 17 Sur 0 -- -- 72
2020-09-09 03:00:00 14.8 4 Sur 12 Sudeste 0 -- -- 75
2020-09-09 02:00:00 15.2 5 Sudeste 12 Sudeste 0 -- -- 74
2020-09-09 01:00:00 16.2 9 Sur 21 Sur 0 -- -- 70
2020-09-09 00:00:00 17.2 9 Sur 27 Sudeste 0 -- -- 64
2020-09-08 23:00:00 18.4 9 Sur 28 Sudeste 0 -- -- 55
2020-09-08 22:00:00 19.7 11 Sudeste 30 Sudeste 0 -- -- 49
2020-09-08 21:00:00 21 13 Sudeste 29 Sudeste 0 -- -- 39
2020-09-08 20:00:00 22.6 14 Sudeste 26 Sudeste 0 -- -- 34
2020-09-08 19:00:00 23.9 12 Sudeste 28 Sudeste 0 -- -- 32
2020-09-08 18:00:00 24.7 11 Este 29 Este 0 -- -- 31
2020-09-08 17:00:00 24.7 13 Sudeste 26 Sudeste 0 -- -- 32
2020-09-08 16:00:00 24.6 11 Sudeste 31 Sudeste 0 -- -- 31
2020-09-08 15:00:00 24.5 12 Sur 31 Sur 0 -- -- 32
2020-09-08 14:00:00 23.4 12 Sudeste 30 Sur 0 -- -- 38
2020-09-08 13:00:00 22.1 13 Sur 36 Sur 0 -- -- 46
2020-09-08 12:00:00 20.7 15 Sudeste 35 Sudeste 0 -- -- 54
2020-09-08 11:00:00 18.9 18 Sudeste 39 Sudeste 0 -- -- 61
2020-09-08 10:00:00 17.2 18 Sudeste 36 Sudeste 0 -- -- 69
2020-09-08 09:00:00 15.1 18 Sudeste 35 Sudeste 0 -- -- 77
2020-09-08 08:00:00 13.5 15 Sudeste 30 Sudeste 0 -- -- 81
2020-09-08 07:00:00 13.9 14 Sudeste 28 Sudeste 0 -- -- 76
2020-09-08 06:00:00 14.1 13 Sudeste 24 Sudeste 0 -- -- 76
2020-09-08 05:00:00 14.6 10 Sudeste 29 Sur 0 -- -- 73
2020-09-08 04:00:00 14.4 12 Sudeste 28 Sudeste 0 -- -- 79
2020-09-08 03:00:00 14.9 12 Sudeste 30 Sudeste 0 -- -- 78
2020-09-08 02:00:00 15.5 13 Sudeste 26 Sudeste 0 -- -- 75
2020-09-08 01:00:00 16 12 Sudeste 35 Sudeste 0 -- -- 71
2020-09-08 00:00:00 17.1 13 Sudeste 30 Sudeste 0 -- -- 68
2020-09-07 23:00:00 18.2 9 Este 18 Sudeste 0 -- -- 64
2020-09-07 22:00:00 19.8 4 Norte 10 Nordeste 0 -- -- 29
2020-09-07 21:00:00 21.8 5 Nordeste 17 Norte 0 -- -- 25
2020-09-07 20:00:00 23.8 9 Norte 26 Norte 0 -- -- 22
2020-09-07 19:00:00 24.9 14 Norte 28 Nordeste 0 -- -- 20
2020-09-07 18:00:00 25.7 13 Norte 28 Norte 0 -- -- 22
2020-09-07 17:00:00 26.8 11 Norte 29 Norte 0 -- -- 23
2020-09-07 16:00:00 26.7 15 Norte 32 Nordeste 0 -- -- 24
2020-09-07 15:00:00 26.1 11 Norte 27 Nordeste 0 -- -- 35
2020-09-07 14:00:00 25.7 11 Nordeste 27 Norte 0 -- -- 35
2020-09-07 13:00:00 25.1 10 Nordeste 19 Nordeste 0 -- -- 36
2020-09-07 12:00:00 23.7 9 Nordeste 21 Norte 0 -- -- 46
2020-09-07 11:00:00 25.8 4 Noroeste 12 Norte 0 -- -- 40
2020-09-07 10:00:00 21.8 3 Sur 6 Sur 0 -- -- 55
2020-09-07 09:00:00 19.4 4 Sudeste 8 Sudeste 0 -- -- 61
2020-09-07 08:00:00 15.3 3 Sudeste 6 Sudeste 0 -- -- 67
2020-09-07 07:00:00 15.8 0 Calma 5 Este 0 -- -- 61
2020-09-07 06:00:00 16.3 0 Calma 4 Sudeste 0 -- -- 58
2020-09-07 05:00:00 17.5 0 Calma 6 Sudoeste 0 -- -- 55
2020-09-07 04:00:00 19.1 3 Sur 9 Norte 0 -- -- 51
2020-09-07 03:00:00 19.9 4 Norte 17 Nordeste 0 -- -- 51
2020-09-07 02:00:00 19.3 3 Sudeste 7 Sudeste 0 -- -- 51
2020-09-07 01:00:00 20.4 5 Sudeste 7 Sudeste 0 -- -- 48
2020-09-07 00:00:00 21.2 2 Sudeste 9 Sudeste 0 -- -- 45
2020-09-06 23:00:00 22.2 0 Calma 10 Sudeste 0 -- -- 42
2020-09-06 22:00:00 24.2 4 Sudeste 11 Sudeste 0 -- -- 36
2020-09-06 21:00:00 26 5 Sudeste 16 Sudeste 0 -- -- 33
2020-09-06 20:00:00 28.3 9 Este 24 Este 0 -- -- 28
2020-09-06 19:00:00 29.8 12 Este 27 Este 0 -- -- 25
2020-09-06 18:00:00 31.4 5 Sudeste 17 Oeste 0 -- -- 22
2020-09-06 17:00:00 31.8 6 Sur 18 Sur 0 -- -- 22
2020-09-06 16:00:00 31.1 9 Sur 21 Este 0 -- -- 22
2020-09-06 15:00:00 31.4 7 Sur 21 Sudeste 0 -- -- 22
2020-09-06 14:00:00 30.9 8 Sudeste 25 Sudeste 0 -- -- 23
2020-09-06 13:00:00 29.8 10 Sudeste 22 Sudeste 0 -- -- 21
2020-09-06 12:00:00 28.3 7 Sur 19 Sur 0 -- -- 23
2020-09-06 11:00:00 26.7 6 Sur 19 Sudeste 0 -- -- 27
2020-09-06 10:00:00 24.1 7 Sudeste 15 Sur 0 -- -- 35
2020-09-06 09:00:00 20.5 3 Sudoeste 5 Sur 0 -- -- 45
2020-09-06 08:00:00 16 0 Calma 8 Sur 0 -- -- 59
2020-09-06 07:00:00 16.7 3 Sudoeste 14 Sur 0 -- -- 65
2020-09-06 06:00:00 17.1 4 Sudeste 12 Sudeste 0 -- -- 72
2020-09-06 05:00:00 17.5 3 Este 18 Sudeste 0 -- -- 73
2020-09-06 04:00:00 18.2 6 Sudeste 19 Sudeste 0 -- -- 72
2020-09-06 03:00:00 18.6 5 Sur 17 Sur 0 -- -- 73
2020-09-06 02:00:00 19.8 8 Sur 20 Sur 0 -- -- 67
2020-09-06 01:00:00 20.5 9 Sudeste 26 Sudeste 0 -- -- 62
2020-09-06 00:00:00 21 4 Sur 10 Sur 0 -- -- 50
2020-09-05 23:00:00 22.1 3 Sur 12 Sudeste -- -- -- 44
2020-09-05 22:00:00 23.7 3 Sudeste 7 Sudeste 0 -- -- 35
2020-09-05 21:00:00 26 3 Sudeste 22 Sudeste 0 -- -- 31
2020-09-05 20:00:00 28.2 11 Sudeste 23 Sudeste 0 -- -- 28
2020-09-05 19:00:00 30 10 Este 28 Sudeste 0 -- -- 26
2020-09-05 18:00:00 30.6 12 Este 26 Sudeste 0 -- -- 25
2020-09-05 17:00:00 31.2 9 Sudeste 23 Este 0 -- -- 25
2020-09-05 16:00:00 31.3 6 Sudeste 26 Este 0 -- -- 26
2020-09-05 15:00:00 30.6 10 Este 24 Este 0 -- -- 28
2020-09-05 14:00:00 30.3 8 Este 16 Este 0 -- -- 26
2020-09-05 13:00:00 30.4 3 Nordeste 8 Sudoeste 0 -- -- 28
2020-09-05 12:00:00 28.1 3 Sudoeste 8 Sudeste 0 -- -- 32
2020-09-05 11:00:00 26.5 2 Sur 11 Oeste 0 -- -- 37
2020-09-05 10:00:00 22.7 4 Sudoeste 9 Sudoeste 0 -- -- 50
2020-09-05 09:00:00 19.9 2 Sudeste 4 Sudeste 0 -- -- 58
2020-09-05 08:00:00 14.2 0 Calma 5 Sur 0 -- -- 75
2020-09-05 07:00:00 14.6 0 Calma 7 Sudeste 0 -- -- 75
2020-09-05 06:00:00 14.8 2 Sudeste 7 Sudeste 0 -- -- 73
2020-09-05 05:00:00 15.5 2 Sur 9 Sur 0 -- -- 71
2020-09-05 04:00:00 16.2 3 Sur 9 Sudeste 0 -- -- 70
2020-09-05 03:00:00 16.8 4 Sudeste 10 Sudeste 0 -- -- 68
2020-09-05 02:00:00 17.7 3 Sur 10 Sur 0 -- -- 65
2020-09-05 01:00:00 18.6 2 Sudeste 11 Sur 0 -- -- 63
2020-09-05 00:00:00 19.6 4 Sudeste 17 Sudeste 0 -- -- 59
2020-09-04 23:00:00 21 8 Sudeste 22 Sur 0 -- -- 54
2020-09-04 22:00:00 22.6 8 Sur 22 Sur 0 -- -- 47
2020-09-04 21:00:00 24.3 8 Sudeste 31 Sudeste 0 -- -- 39
2020-09-04 20:00:00 26.8 16 Sudeste 29 Sudeste 0 -- -- 33
2020-09-04 19:00:00 28.5 12 Sudeste 26 Sudeste 0 -- -- 29
2020-09-04 18:00:00 29.1 10 Sudeste 24 Sudeste 0 -- -- 28
2020-09-04 17:00:00 29.2 11 Sudeste 27 Sudeste 0 -- -- 26
2020-09-04 16:00:00 29.1 10 Sudeste 26 Sudeste 0 -- -- 25
2020-09-04 15:00:00 28 13 Sudeste 29 Sur 0 -- -- 26
2020-09-04 14:00:00 26.9 14 Sudeste 30 Sur 0 -- -- 26
2020-09-04 13:00:00 25.7 16 Sudeste 37 Sudeste 0 -- -- 28
2020-09-04 12:00:00 24.1 17 Sudeste 33 Sudeste 0 -- -- 32
2020-09-04 11:00:00 23 11 Sur 30 Sudeste 0 -- -- 38
2020-09-04 10:00:00 21.8 9 Sur 25 Sur 0 -- -- 47
2020-09-04 09:00:00 19 5 Sur 13 Sur 0 -- -- 60
2020-09-04 08:00:00 14.7 6 Sudeste 13 Sudeste 0 -- -- 77
2020-09-04 07:00:00 15.6 3 Sur 9 Sudeste 0 -- -- 74
2020-09-04 06:00:00 16.3 5 Este 16 Sudeste 0 -- -- 73
2020-09-04 05:00:00 17 6 Sudeste 15 Sudeste 0 -- -- 70
2020-09-04 04:00:00 16.8 4 Sur 15 Sudeste 0 -- -- 71
2020-09-04 03:00:00 17.5 8 Sudeste 19 Sur 0 -- -- 68
2020-09-04 02:00:00 18 8 Sudeste 15 Sudeste 0 -- -- 65
2020-09-04 01:00:00 18.3 4 Sudeste 13 Sudeste 0 -- -- 60
2020-09-04 00:00:00 19.6 5 Sudeste 9 Sudeste 0 -- -- 56
2020-09-03 23:00:00 21 4 Sudeste 13 Sur 0 -- -- 51
2020-09-03 22:00:00 22.8 5 Sur 19 Sudeste 0 -- -- 44
2020-09-03 21:00:00 24.7 8 Sudeste 28 Sudeste 0 -- -- 39
2020-09-03 20:00:00 26.7 13 Sudeste 27 Sudeste 0 -- -- 31
2020-09-03 19:00:00 28.2 14 Sudeste 30 Sudeste 0 -- -- 27
2020-09-03 18:00:00 29.3 9 Este 24 Sur 0 -- -- 25
2020-09-03 17:00:00 29.4 10 Este 23 Este 0 -- -- 24
2020-09-03 16:00:00 29.1 10 Este 23 Este 0 -- -- 25
2020-09-03 15:00:00 29.7 8 Sudoeste 20 Sur 0 -- -- 26
2020-09-03 14:00:00 28.9 5 Sudeste 12 Sudeste 0 -- -- 27
2020-09-03 13:00:00 28 7 Sur 14 Sudoeste 0 -- -- 28
2020-09-03 12:00:00 27.3 3 Nordeste 8 Este 0 -- -- 31
2020-09-03 11:00:00 26.8 3 Oeste 9 Oeste 0 -- -- 36
2020-09-03 10:00:00 23.1 4 Sur 6 Sur 0 -- -- 49
2020-09-03 09:00:00 19.5 0 Calma 4 Sudeste 0 -- -- 59
2020-09-03 08:00:00 14.2 2 Sur 5 Sur 0 -- -- 76
2020-09-03 07:00:00 14.2 2 Sudoeste 6 Sudeste 0 -- -- 76
2020-09-03 06:00:00 14.5 2 Sur 6 Sudeste 0 -- -- 74
2020-09-03 05:00:00 15.1 2 Sudoeste 6 Sur 0 -- -- 69
2020-09-03 04:00:00 14.6 4 Sudeste 8 Sudeste 0 -- -- 73
2020-09-03 03:00:00 15.8 0 Calma 5 Sudeste 0 -- -- 69
2020-09-03 02:00:00 16.7 0 Calma 4 Sur 0 -- -- 69
2020-09-03 01:00:00 17.9 4 Sudeste 6 Sudeste 0 -- -- 65
2020-09-03 00:00:00 19 2 Sudeste 5 Sudeste 0 -- -- 61
2020-09-02 23:00:00 20.1 2 Sudeste 12 Sur 0 -- -- 56
2020-09-02 22:00:00 22.1 7 Sur 14 Sur 0 -- -- 48
2020-09-02 21:00:00 23.7 5 Nordeste 16 Nordeste 0 -- -- 30
2020-09-02 20:00:00 25.9 7 Nordeste 25 Norte 0 -- -- 25
2020-09-02 19:00:00 26.9 8 Nordeste 23 Este -- -- -- 24
2020-09-02 18:00:00 27.7 8 Este 19 Nordeste 0 -- -- 24
2020-09-02 17:00:00 27.6 6 Nordeste 24 Este 0 -- -- 23
2020-09-02 16:00:00 28.4 5 Nordeste 19 Este 0 -- -- 23
2020-09-02 15:00:00 28.1 5 Norte 17 Nordeste 0 -- -- 22
2020-09-02 14:00:00 27.8 5 Nordeste 19 Sur 0 -- -- 23
2020-09-02 13:00:00 26.7 6 Sur 15 Sudeste 0 -- -- 24
2020-09-02 12:00:00 26.3 3 Este 13 Sur 0 -- -- 28
2020-09-02 11:00:00 23.6 6 Sudoeste 14 Sudoeste 0 -- -- 37
2020-09-02 10:00:00 20.8 8 Sur 15 Sur 0 -- -- 43
2020-09-02 09:00:00 17.6 2 Este 5 Sudeste 0 -- -- 54
2020-09-02 08:00:00 12.8 2 Sur 4 Sur 0 -- -- 60
2020-09-02 07:00:00 12.5 0 Calma 3 Sudeste 0 -- -- 52
2020-09-02 06:00:00 13.1 0 Calma 3 Sudeste 0 -- -- 50
2020-09-02 05:00:00 13.6 2 Sudeste 4 Sudeste 0 -- -- 46
2020-09-02 04:00:00 14.4 0 Calma 6 Sudeste 0 -- -- 41
2020-09-02 03:00:00 15.9 0 Calma 6 Sudoeste 0 -- -- 38
2020-09-02 02:00:00 17.1 0 Calma 3 Sudeste 0 -- -- 36
2020-09-02 01:00:00 18.2 2 Sur 6 Este 0 -- -- 33
2020-09-02 00:00:00 18.8 3 Sudoeste 9 Sudoeste 0 -- -- 31
2020-09-01 23:00:00 19.8 0 Calma 2 Sudoeste 0 -- -- 30
2020-09-01 22:00:00 20.8 2 Nordeste 5 Nordeste 0 -- -- 27
2020-09-01 21:00:00 22.8 4 Nordeste 8 Nordeste 0 -- -- 25
2020-09-01 20:00:00 24.1 6 Nordeste 12 Nordeste 0 -- -- 23
2020-09-01 19:00:00 24.6 7 Nordeste 21 Nordeste 0 -- -- 24
2020-09-01 18:00:00 25.9 9 Norte 26 Noroeste 0 -- -- 23
2020-09-01 17:00:00 28.5 8 Noroeste 22 Noroeste 0 -- -- 18
2020-09-01 16:00:00 26.7 4 Sudoeste 18 Norte 0 -- -- 21
2020-09-01 15:00:00 26.7 7 Sudoeste 19 Sudoeste 0 -- -- 22
2020-09-01 14:00:00 25.8 5 Oeste 13 Sudoeste 0 -- -- 25
2020-09-01 13:00:00 23.5 2 Sudeste 11 Sudoeste 0 -- -- 30
2020-09-01 12:00:00 20.3 6 Sur 11 Sur 0 -- -- 45
2020-09-01 11:00:00 18.5 4 Sur 7 Sur 0 -- -- 54
2020-09-01 10:00:00 16.3 2 Sur 5 Sudeste 0 -- -- 62
2020-09-01 09:00:00 13.5 0 Calma 4 Sudeste 0 -- -- 72
2020-09-01 08:00:00 12.3 0 Calma 2 Sur 0 -- -- 72
2020-09-01 07:00:00 12.2 0 Calma 3 Sudeste 0 -- -- 74
2020-09-01 06:00:00 12.1 0 Calma 4 Sur 0 -- -- 78
2020-09-01 05:00:00 12.5 3 Sudoeste 6 Sudoeste 0 -- -- 68
2020-09-01 04:00:00 13.2 0 Calma 2 Sudoeste 0 -- -- 60
2020-09-01 03:00:00 13.8 0 Calma 2 Sudoeste 0 -- -- 49
2020-09-01 02:00:00 15.4 0 Calma 2 Sudoeste 0 -- -- 41
2020-09-01 01:00:00 16.3 0 Calma 6 Sudeste 0 -- -- 37
2020-09-01 00:00:00 17.1 0 Calma 7 Este 0 -- -- 28
2020-08-31 23:00:00 18.4 4 Nordeste 7 Este 0 -- -- 26
2020-08-31 22:00:00 19.3 4 Nordeste 9 Nordeste 0 -- -- 25
2020-08-31 21:00:00 21.5 5 Nordeste 15 Nordeste 0 -- -- 22
2020-08-31 20:00:00 23.9 8 Nordeste 19 Nordeste 0 -- -- 20
2020-08-31 19:00:00 25.5 5 Norte 18 Norte 0 -- -- 19
2020-08-31 18:00:00 26.2 8 Nordeste 19 Nordeste 0 -- -- 18
2020-08-31 17:00:00 27.4 6 Oeste 19 Sudeste 0 -- -- 14
2020-08-31 16:00:00 26.6 4 Este 15 Noroeste 0 -- -- 15
2020-08-31 15:00:00 25.8 5 Nordeste 16 Sur 0 -- -- 15
2020-08-31 14:00:00 25 4 Nordeste 15 Oeste 0 -- -- 17
2020-08-31 13:00:00 24.5 3 Norte 14 Sudoeste 0 -- -- 18
2020-08-31 12:00:00 22.6 5 Sudeste 15 Sudeste 0 -- -- 22
2020-08-31 11:00:00 21.5 6 Sur 13 Sur 0 -- -- 31
2020-08-31 10:00:00 18.7 6 Sur 12 Sur 0 -- -- 41
2020-08-31 09:00:00 12.8 0 Calma 6 Sudoeste 0 -- -- 54
2020-08-31 08:00:00 9.2 0 Calma 4 Sudoeste 0 -- -- 68
2020-08-31 07:00:00 9 0 Calma 5 Sur 0 -- -- 69
2020-08-31 06:00:00 9.9 2 Sur 8 Sur 0 -- -- 67
2020-08-31 05:00:00 10.9 3 Sur 8 Sur 0 -- -- 62
2020-08-31 04:00:00 12.3 3 Sudoeste 14 Sudeste 0 -- -- 52
2020-08-31 03:00:00 13.5 6 Este 14 Este 0 -- -- 39
2020-08-31 02:00:00 13.1 2 Sudoeste 5 Nordeste 0 -- -- 39
2020-08-31 01:00:00 14.3 3 Este 8 Nordeste 0 -- -- 36
2020-08-31 00:00:00 14.8 4 Nordeste 9 Nordeste 0 -- -- 35
2020-08-30 23:00:00 15.6 4 Norte 9 Norte 0 -- -- 33
2020-08-30 22:00:00 16.6 4 Norte 15 Nordeste 0 -- -- 31
2020-08-30 21:00:00 18.7 8 Norte 23 Nordeste 0 -- -- 29
2020-08-30 20:00:00 20.1 12 Norte 23 Norte 0 -- -- 27
2020-08-30 19:00:00 21.3 8 Norte 25 Nordeste 0 -- -- 26
2020-08-30 18:00:00 21.9 8 Norte 23 Oeste 0 -- -- 25
2020-08-30 17:00:00 22.1 10 Nordeste 23 Noroeste 0 -- -- 26
2020-08-30 16:00:00 22.3 6 Norte 21 Este 0 -- -- 27
2020-08-30 15:00:00 22.6 9 Noroeste 23 Noroeste 0 -- -- 27
2020-08-30 14:00:00 20.5 9 Nordeste 19 Norte 0 -- -- 31
2020-08-30 13:00:00 19.4 9 Nordeste 19 Norte 0 -- -- 33
2020-08-30 12:00:00 18.4 9 Nordeste 21 Nordeste 0 -- -- 36
2020-08-30 11:00:00 17.5 9 Nordeste 20 Este 0 -- -- 42
2020-08-30 10:00:00 17.3 3 Sudeste 8 Este 0 -- -- 47
2020-08-30 09:00:00 14.5 3 Sudeste 8 Sudeste 0 -- -- 55
2020-08-30 08:00:00 10.1 0 Calma 6 Nordeste 0 -- -- 68
2020-08-30 07:00:00 10.7 3 Este 8 Nordeste 0 -- -- 62
2020-08-30 06:00:00 11.2 3 Nordeste 12 Nordeste 0 -- -- 60
2020-08-30 05:00:00 11.6 0 Calma 10 Nordeste 0 -- -- 57
2020-08-30 04:00:00 11.8 3 Norte 5 Nordeste 0 -- -- 56
2020-08-30 03:00:00 12.7 0 Calma 11 Nordeste 0 -- -- 53
2020-08-30 02:00:00 13.3 7 Nordeste 12 Nordeste 0 -- -- 50
2020-08-30 01:00:00 14.4 7 Nordeste 14 Nordeste 0 -- -- 46
2020-08-30 00:00:00 15.5 8 Nordeste 23 Norte 0 -- -- 42
2020-08-29 23:00:00 17.1 14 Nordeste 26 Nordeste 0 -- -- 37
2020-08-29 22:00:00 17.3 3 Norte 13 Norte 0 -- -- 35
2020-08-29 21:00:00 19.3 8 Norte 26 Norte 0 -- -- 31
2020-08-29 20:00:00 20.7 14 Norte 33 Nordeste 0 -- -- 27
2020-08-29 19:00:00 21.6 15 Norte 33 Nordeste 0 -- -- 27
2020-08-29 18:00:00 22 15 Norte 32 Nordeste 0 -- -- 29
2020-08-29 17:00:00 22.1 16 Norte 31 Nordeste 0 -- -- 24
2020-08-29 16:00:00 22.4 15 Norte 38 Norte 0 -- -- 28
2020-08-29 15:00:00 21.8 13 Norte 34 Nordeste 0 -- -- 30
2020-08-29 14:00:00 21.7 16 Norte 35 Nordeste 0 -- -- 32
2020-08-29 13:00:00 20.9 19 Nordeste 32 Nordeste 0 -- -- 35
2020-08-29 12:00:00 20.4 14 Norte 26 Nordeste 0 -- -- 42
2020-08-29 11:00:00 18.1 11 Nordeste 20 Norte 0 -- -- 57
2020-08-29 10:00:00 17.9 8 Norte 20 Norte 0 -- -- 57
2020-08-29 09:00:00 16.1 6 Norte 17 Norte 0 -- -- 53
2020-08-29 08:00:00 13.3 2 Noroeste 8 Noroeste 0 -- -- 52
2020-08-29 07:00:00 13.9 0 Calma 6 Noroeste 0 -- -- 47
2020-08-29 06:00:00 14.8 3 Noroeste 9 Oeste 0 -- -- 44
2020-08-29 05:00:00 16 5 Noroeste 10 Noroeste 0 -- -- 39
2020-08-29 04:00:00 17.1 4 Oeste 19 Noroeste 0 -- -- 35
2020-08-29 03:00:00 18.8 10 Noroeste 20 Noroeste 0 -- -- 31
2020-08-29 02:00:00 19.8 8 Noroeste 19 Oeste 0 -- -- 30
2020-08-29 01:00:00 21.4 7 Noroeste 24 Noroeste 0 -- -- 35
2020-08-29 00:00:00 22.9 12 Noroeste 24 Noroeste 0 -- -- 37
2020-08-28 23:00:00 23.9 11 Noroeste 26 Noroeste 0 -- -- 37
2020-08-28 22:00:00 25.1 13 Noroeste 31 Noroeste 0 -- -- 33
2020-08-28 21:00:00 26.5 13 Noroeste 37 Noroeste 0 -- -- 33
2020-08-28 20:00:00 28.1 19 Noroeste 40 Noroeste 0 -- -- 34
2020-08-28 19:00:00 29.4 19 Noroeste 42 Noroeste 0 -- -- 29
2020-08-28 18:00:00 30.8 18 Noroeste 40 Noroeste 0 -- -- 23
2020-08-28 17:00:00 31.2 23 Noroeste 41 Noroeste 0 -- -- 26
2020-08-28 16:00:00 31.6 13 Noroeste 53 Oeste 0 -- -- 30
2020-08-28 15:00:00 32.4 18 Noroeste 39 Noroeste 0 -- -- 28
2020-08-28 14:00:00 32.1 18 Oeste 32 Oeste 0 -- -- 30
2020-08-28 13:00:00 31 16 Oeste 32 Oeste 0 -- -- 31
2020-08-28 12:00:00 29.6 14 Oeste 27 Oeste 0 -- -- 35
2020-08-28 11:00:00 28.5 14 Oeste 27 Oeste 0 -- -- 36
2020-08-28 10:00:00 26 14 Oeste 23 Oeste 0 -- -- 42
2020-08-28 09:00:00 22 5 Sudoeste 12 Sudoeste 0 -- -- 43
2020-08-28 08:00:00 19.3 4 Sudoeste 12 Sudoeste 0 -- -- 45
2020-08-28 07:00:00 19.6 5 Sudoeste 13 Oeste 0 -- -- 43
2020-08-28 06:00:00 20.7 7 Sudoeste 15 Oeste 0 -- -- 39
2020-08-28 05:00:00 21.2 5 Sudoeste 12 Oeste 0 -- -- 37
2020-08-28 04:00:00 23 5 Oeste 16 Oeste 0 -- -- 31
2020-08-28 03:00:00 23.2 9 Oeste 14 Oeste 0 -- -- 29
2020-08-28 02:00:00 23.6 7 Oeste 13 Oeste 0 -- -- 28
2020-08-28 01:00:00 25 5 Sudoeste 12 Sudoeste 0 -- -- 26
2020-08-28 00:00:00 25.5 5 Sudoeste 10 Sur 0 -- -- 26
2020-08-27 23:00:00 27.6 0 Calma 9 Oeste 0 -- -- 23
2020-08-27 22:00:00 29.2 5 Sudoeste 9 Sudoeste 0 -- -- 20
2020-08-27 21:00:00 30.7 5 Nordeste 15 Nordeste 0 -- -- 19
2020-08-27 20:00:00 33.6 11 Nordeste 18 Nordeste 0 -- -- 16
2020-08-27 19:00:00 35.4 5 Norte 19 Noroeste 0 -- -- 15
2020-08-27 18:00:00 36.3 8 Oeste 25 Oeste 0 -- -- 14
2020-08-27 17:00:00 36.4 8 Noroeste 26 Noroeste 0 -- -- 14
2020-08-27 16:00:00 36.9 5 Norte 21 Noroeste 0 -- -- 15
2020-08-27 15:00:00 36.2 5 Noroeste 31 Noroeste 0 -- -- 15
2020-08-27 14:00:00 35.6 8 Oeste 22 Oeste 0 -- -- 16
2020-08-27 13:00:00 34.4 10 Noroeste 23 Noroeste 0 -- -- 18
2020-08-27 12:00:00 33.6 10 Oeste 24 Oeste 0 -- -- 21
2020-08-27 11:00:00 32.4 9 Oeste 16 Oeste 0 -- -- 25
2020-08-27 10:00:00 28.2 3 Sudoeste 6 Sudoeste 0 -- -- 35
2020-08-27 09:00:00 23.4 3 Sudeste 7 Sudeste 0 -- -- 40
2020-08-27 08:00:00 18.3 4 Sudeste 8 Sudeste 0 -- -- 47
2020-08-27 07:00:00 17.9 3 Sudeste 5 Sudeste 0 -- -- 46
2020-08-27 06:00:00 18.4 0 Calma 5 Sudeste 0 -- -- 46
2020-08-27 05:00:00 19.5 2 Sudeste 12 Sudeste 0 -- -- 44
2020-08-27 04:00:00 20.5 2 Sudeste 4 Sudeste 0 -- -- 42
2020-08-27 03:00:00 22 0 Calma 4 Sur 0 -- -- 39
2020-08-27 02:00:00 22.6 3 Sudeste 7 Sudeste 0 -- -- 38
2020-08-27 01:00:00 24 0 Calma 5 Oeste 0 -- -- 33
2020-08-27 00:00:00 26.4 3 Oeste 15 Sudoeste 0 -- -- 28
2020-08-26 23:00:00 26.9 0 Calma 4 Sur 0 -- -- 29
2020-08-26 22:00:00 29.5 0 Calma 6 Norte 0 -- -- 23
2020-08-26 21:00:00 32 4 Norte 10 Oeste 0 -- -- 22
2020-08-26 20:00:00 34.5 5 Noroeste 24 Oeste 0 -- -- 20
2020-08-26 19:00:00 35.7 3 Sudeste 18 Oeste 0 -- -- 18
2020-08-26 18:00:00 36 6 Oeste 18 Oeste 0 -- -- 19
2020-08-26 17:00:00 36.1 5 Noroeste 22 Oeste 0 -- -- 20
2020-08-26 16:00:00 36.7 9 Oeste 22 Oeste 0 -- -- 20
2020-08-26 15:00:00 36.6 9 Oeste 19 Sur 0 -- -- 21
2020-08-26 14:00:00 35.6 4 Sur 13 Norte 0 -- -- 22
2020-08-26 13:00:00 34.1 4 Este 15 Oeste 0 -- -- 23
2020-08-26 12:00:00 34.2 4 Sudoeste 14 Noroeste 0 -- -- 24
2020-08-26 11:00:00 31.1 6 Oeste 14 Oeste 0 -- -- 31
2020-08-26 10:00:00 27.6 7 Sudoeste 14 Sudoeste 0 -- -- 40
2020-08-26 09:00:00 24.4 3 Sudeste 8 Sudeste 0 -- -- 45
2020-08-26 08:00:00 19.1 3 Sur 6 Sudeste 0 -- -- 54
2020-08-26 07:00:00 18.9 2 Sur 6 Sudeste 0 -- -- 52
2020-08-26 06:00:00 19.9 2 Sur 7 Sudeste 0 -- -- 48
2020-08-26 05:00:00 21.4 2 Sudeste 5 Sudeste 0 -- -- 46
2020-08-26 04:00:00 21.8 4 Sudeste 6 Sudeste 0 -- -- 44
2020-08-26 03:00:00 22.5 0 Calma 4 Sudeste 0 -- -- 42
2020-08-26 02:00:00 23.1 3 Sudeste 6 Sudeste 0 -- -- 43
2020-08-26 01:00:00 23.6 3 Sudeste 9 Sudeste 0 -- -- 50
2020-08-26 00:00:00 25.2 6 Sudeste 9 Sudeste 0 -- -- 47
2020-08-25 23:00:00 26.9 2 Este 15 Sudeste 0 -- -- 43
2020-08-25 22:00:00 28.1 5 Sudeste 10 Nordeste 0 -- -- 31
2020-08-25 21:00:00 31 4 Norte 8 Norte 0 -- -- 26
2020-08-25 20:00:00 34 4 Sudoeste 14 Noroeste 0 -- -- 21
2020-08-25 19:00:00 34.4 5 Nordeste 17 Sur 0 -- -- 21
2020-08-25 18:00:00 35.1 3 Noroeste 18 Sudoeste 0 -- -- 21
2020-08-25 17:00:00 35.4 7 Sudoeste 23 Oeste 0 -- -- 22
2020-08-25 16:00:00 35.3 11 Sudoeste 21 Oeste 0 -- -- 22
2020-08-25 15:00:00 34.7 6 Norte 21 Oeste 0 -- -- 23
2020-08-25 14:00:00 34.4 5 Oeste 20 Oeste 0 -- -- 25
2020-08-25 13:00:00 32.9 7 Noroeste 17 Oeste 0 -- -- 25
2020-08-25 12:00:00 32.9 7 Noroeste 17 Noroeste 0 -- -- 27
2020-08-25 11:00:00 30.3 6 Oeste 18 Sudoeste 0 -- -- 34
2020-08-25 10:00:00 25.9 8 Sudoeste 17 Sudoeste 0 -- -- 51
2020-08-25 09:00:00 22.2 5 Sudoeste 12 Sur 0 -- -- 64
2020-08-25 08:00:00 18.9 4 Sur 6 Sur 0 -- -- 69
2020-08-25 07:00:00 18.1 3 Sur 6 Sudeste 0 -- -- 67
2020-08-25 06:00:00 17.9 4 Sudeste 6 Sudeste 0 -- -- 66
2020-08-25 05:00:00 18.8 4 Sudeste 8 Sudeste 0 -- -- 65
2020-08-25 04:00:00 19.3 4 Sudeste 7 Sudeste 0 -- -- 66
2020-08-25 03:00:00 20.2 3 Sudeste 7 Sur 0 -- -- 68
2020-08-25 02:00:00 21.4 4 Sudeste 8 Sudeste 0 -- -- 70
2020-08-25 01:00:00 22.5 2 Sur 8 Sudeste 0 -- -- 68
2020-08-25 00:00:00 23.5 4 Sudeste 13 Sudeste 0 -- -- 64
2020-08-24 23:00:00 25.2 8 Sudeste 15 Sudeste 0 -- -- 58
2020-08-24 22:00:00 26.8 6 Sudeste 16 Sudeste 0 -- -- 52
2020-08-24 21:00:00 29 7 Nordeste 14 Nordeste 0 -- -- 27
2020-08-24 20:00:00 31.2 9 Nordeste 16 Nordeste 0 -- -- 19
2020-08-24 19:00:00 33.1 9 Nordeste 17 Nordeste 0 -- -- 17
2020-08-24 18:00:00 34.5 4 Oeste 16 Noroeste 0 -- -- 17
2020-08-24 17:00:00 34.4 6 Noroeste 19 Oeste 0 -- -- 14
2020-08-24 16:00:00 34.5 9 Oeste 22 Noroeste 0 -- -- 14
2020-08-24 15:00:00 33.7 6 Oeste 19 Oeste 0 -- -- 16
2020-08-24 14:00:00 33.1 11 Oeste 21 Oeste 0 -- -- 17
2020-08-24 13:00:00 31.9 6 Oeste 19 Oeste 0 -- -- 19
2020-08-24 12:00:00 30.5 8 Oeste 17 Sudoeste 0 -- -- 24
2020-08-24 11:00:00 28.1 9 Sudoeste 18 Sudoeste 0 -- -- 29
2020-08-24 10:00:00 25.8 7 Sudoeste 17 Sudoeste 0 -- -- 37
2020-08-24 09:00:00 22.5 3 Sur 8 Sudeste 0 -- -- 64
2020-08-24 08:00:00 18.3 3 Sudeste 7 Sur 0 -- -- 79
2020-08-24 07:00:00 18.2 3 Sudeste 10 Sur 0 -- -- 82
2020-08-24 06:00:00 18.9 3 Sur 14 Sur 0 -- -- 85
2020-08-24 05:00:00 20 5 Sur 10 Sur 0 -- -- 73
2020-08-24 04:00:00 20.2 3 Sudeste 9 Sudeste 0 -- -- 76
2020-08-24 03:00:00 21 3 Sur 8 Sur -- -- -- 74
2020-08-24 02:00:00 22.1 4 Oeste 9 Oeste 0 -- -- 72
2020-08-24 01:00:00 23.2 3 Sudeste 13 Sudeste 0 -- -- 69
2020-08-24 00:00:00 24.1 3 Sudeste 13 Sudeste 0 -- -- 64